Aeroporto :
LOGIN :

Iscrizione | Disclaimer

   EN    FR    IT 

 










Sommario :    VFR   VFR Marginale   IFR   IFR Intensivo   IFR Molto Intensivo
Visibilità : 
Base nubi : 
>= 8 km
>= 3000ft
5 / 8 km
1000 / 3000 ft
1500m / 5 km
500 / 1000 ft
800 / 1500m
200 / 500 ft
< 800m
< 200 ft
Simboli :   Temporali  Nebbia  Neve Forte  Precipitazioni Forti  Vento > 20 kt
SIGMETs :   Varie  Temporali  Ghiacco  Turbolenza  Onda orograficha  Ceneri Vulcaniche






- Altitudine del aeroporto : 348 ft
- Codice IATA : LDV


LFRJ - Landivisiau

ULTIMO METAR :
  • 212030Z AUTO 20008KT 9999 3200 RA FEW027/// SCT035/// BKN044/// ///TCU 07/06 Q0995

METARs OBSOLETI :
  • 212000Z AUTO 18007KT 9999 -RADZ FEW025 BKN033 BKN044 07/05 Q0995
  • 211930Z AUTO 17007KT 9999 FEW026 SCT180 BKN190 06/05 Q0995
  • 211900Z AUTO 18007KT 9999 FEW015 SCT036 BKN048 07/05 Q0995
  • 211830Z AUTO 18007KT 9999 ///TCU 06/05 Q0995 TEMPO 3000 SHRA BKN010CB BKN015TCU BKN025
  • 211800Z AUTO 17006KT 9999 FEW039 06/05 Q0995 TEMPO 3000 SHRA BKN010CB BKN015TCU BKN025

TAF TAF LFRJ
Valido dal 21 a 18 ore il 22 a 03 ore UTC


211700Z 2118/2203 17010KT 9999 SCT035
TEMPO 2118/2203 18013G23KT 3000 SHRA BKN010CB BKN015TCU BKN025



MetMap, La meteo Aeronautica in un colpo d'occhio ! - Copyright ORBIFLY Dicembre 2007 - Disclaimer

ORBIFLY MET'MAP TEAM :

Programmazione e sviluppo : Alexandra Zaïnal
Concezione e sviluppo : Baudouin d'Aumeries
Co-Programmazione e sviluppo : Marc-Olivier Méhu
Supporto tecnico e logistico : Manuel Goepfert
Aiuto per la traduzione : Arnaldo La Scala

Contatto : metmap@orbifly.com




FONTI E CREDITI :

   NOAA